Terminal Aerodrome Forecast
Issued by NWS

Home | Current Version | Previous Version | Text Only | Print | Product List | Glossary On
Versions: 1 2 3 4 5 6 7 8 9 10 11 12 13 14
853
FTUS44 KTSA 250520
TAFFYV
TAF
KFYV 250520Z 2506/2606 17004KT P6SM SKC
      TEMPO 2508/2512 3SM BR
     FM251500 17007KT P6SM SKC
     FM251700 16010G19KT P6SM FEW250
     FM260100 17009KT P6SM SCT250=

USA.gov is the U.S. government's official web portal to all federal, state and local government web resources and services.